sensor_id;sensor_type;location;lat;lon;timestamp;temperature;humidity
820;DHT22;392;48.838;2.322;2023-05-02T00:01:59;13.70;53.60
820;DHT22;392;48.838;2.322;2023-05-02T00:04:26;13.70;53.60
820;DHT22;392;48.838;2.322;2023-05-02T00:06:54;13.70;53.60
820;DHT22;392;48.838;2.322;2023-05-02T00:09:21;13.60;53.80
820;DHT22;392;48.838;2.322;2023-05-02T00:11:49;13.60;54.00
820;DHT22;392;48.838;2.322;2023-05-02T00:14:17;13.60;54.30
820;DHT22;392;48.838;2.322;2023-05-02T00:16:45;13.60;54.40
820;DHT22;392;48.838;2.322;2023-05-02T00:19:13;13.50;54.60
820;DHT22;392;48.838;2.322;2023-05-02T00:21:40;13.50;54.90
820;DHT22;392;48.838;2.322;2023-05-02T00:24:07;13.50;55.00
820;DHT22;392;48.838;2.322;2023-05-02T00:26:34;13.50;55.20
820;DHT22;392;48.838;2.322;2023-05-02T00:29:01;13.40;55.40
820;DHT22;392;48.838;2.322;2023-05-02T00:31:29;13.40;55.80
820;DHT22;392;48.838;2.322;2023-05-02T00:33:57;13.40;55.90
820;DHT22;392;48.838;2.322;2023-05-02T00:36:24;13.40;56.30
820;DHT22;392;48.838;2.322;2023-05-02T00:38:52;13.40;56.20
820;DHT22;392;48.838;2.322;2023-05-02T00:41:20;13.40;56.10
820;DHT22;392;48.838;2.322;2023-05-02T00:43:47;13.40;56.30
820;DHT22;392;48.838;2.322;2023-05-02T00:46:14;13.40;56.50
820;DHT22;392;48.838;2.322;2023-05-02T00:48:41;13.40;56.60
820;DHT22;392;48.838;2.322;2023-05-02T00:51:11;13.40;56.50
820;DHT22;392;48.838;2.322;2023-05-02T00:53:39;13.40;56.70
820;DHT22;392;48.838;2.322;2023-05-02T00:56:07;13.40;56.80
820;DHT22;392;48.838;2.322;2023-05-02T00:58:35;13.30;56.70
820;DHT22;392;48.838;2.322;2023-05-02T01:01:13;13.30;57.30
820;DHT22;392;48.838;2.322;2023-05-02T01:03:55;13.30;57.80
820;DHT22;392;48.838;2.322;2023-05-02T01:09:28;13.20;58.20
820;DHT22;392;48.838;2.322;2023-05-02T01:12:02;13.20;58.50
820;DHT22;392;48.838;2.322;2023-05-02T01:14:34;13.20;58.80
820;DHT22;392;48.838;2.322;2023-05-02T01:17:05;13.20;59.00
820;DHT22;392;48.838;2.322;2023-05-02T01:19:35;13.20;58.90
820;DHT22;392;48.838;2.322;2023-05-02T01:22:08;13.20;58.90
820;DHT22;392;48.838;2.322;2023-05-02T01:24:40;13.20;59.20
820;DHT22;392;48.838;2.322;2023-05-02T01:27:17;13.20;59.50
820;DHT22;392;48.838;2.322;2023-05-02T01:29:52;13.20;59.70
820;DHT22;392;48.838;2.322;2023-05-02T01:32:21;13.20;59.90
820;DHT22;392;48.838;2.322;2023-05-02T01:34:51;13.20;60.20
820;DHT22;392;48.838;2.322;2023-05-02T01:37:19;13.20;60.20
820;DHT22;392;48.838;2.322;2023-05-02T01:39:48;13.20;59.90
820;DHT22;392;48.838;2.322;2023-05-02T01:42:17;13.20;59.90
820;DHT22;392;48.838;2.322;2023-05-02T01:44:46;13.10;59.90
820;DHT22;392;48.838;2.322;2023-05-02T01:47:17;13.10;60.30
820;DHT22;392;48.838;2.322;2023-05-02T01:49:46;13.10;60.30
820;DHT22;392;48.838;2.322;2023-05-02T01:52:14;13.00;60.50
820;DHT22;392;48.838;2.322;2023-05-02T01:54:42;13.00;61.10
820;DHT22;392;48.838;2.322;2023-05-02T01:57:11;12.90;61.60
820;DHT22;392;48.838;2.322;2023-05-02T01:59:39;12.90;62.10
820;DHT22;392;48.838;2.322;2023-05-02T02:02:10;12.90;62.50
820;DHT22;392;48.838;2.322;2023-05-02T02:04:40;12.90;63.10
820;DHT22;392;48.838;2.322;2023-05-02T02:07:12;12.90;63.00
820;DHT22;392;48.838;2.322;2023-05-02T02:09:40;12.80;63.20
820;DHT22;392;48.838;2.322;2023-05-02T02:12:11;12.90;63.70
820;DHT22;392;48.838;2.322;2023-05-02T02:14:47;12.80;63.60
820;DHT22;392;48.838;2.322;2023-05-02T02:17:23;12.90;63.70
820;DHT22;392;48.838;2.322;2023-05-02T02:19:55;12.90;63.80
820;DHT22;392;48.838;2.322;2023-05-02T02:22:25;12.90;63.80
820;DHT22;392;48.838;2.322;2023-05-02T02:24:53;12.90;63.70
820;DHT22;392;48.838;2.322;2023-05-02T02:27:21;12.90;63.60
820;DHT22;392;48.838;2.322;2023-05-02T02:29:49;12.90;63.80
820;DHT22;392;48.838;2.322;2023-05-02T02:32:16;12.90;63.60
820;DHT22;392;48.838;2.322;2023-05-02T02:34:43;12.90;63.40
820;DHT22;392;48.838;2.322;2023-05-02T02:37:15;12.90;63.30
820;DHT22;392;48.838;2.322;2023-05-02T02:39:53;12.80;62.80
820;DHT22;392;48.838;2.322;2023-05-02T02:42:34;12.80;63.30
820;DHT22;392;48.838;2.322;2023-05-02T02:45:15;12.80;63.40
820;DHT22;392;48.838;2.322;2023-05-02T02:47:53;12.70;63.80
820;DHT22;392;48.838;2.322;2023-05-02T02:50:31;12.70;64.30
820;DHT22;392;48.838;2.322;2023-05-02T02:53:07;12.70;64.50
820;DHT22;392;48.838;2.322;2023-05-02T02:55:39;12.70;64.70
820;DHT22;392;48.838;2.322;2023-05-02T02:58:18;12.70;64.50
820;DHT22;392;48.838;2.322;2023-05-02T03:00:48;12.60;64.50
820;DHT22;392;48.838;2.322;2023-05-02T03:03:16;12.60;65.10
820;DHT22;392;48.838;2.322;2023-05-02T03:05:45;12.60;65.40
820;DHT22;392;48.838;2.322;2023-05-02T03:08:15;12.60;65.90
820;DHT22;392;48.838;2.322;2023-05-02T03:10:42;12.60;66.30
820;DHT22;392;48.838;2.322;2023-05-02T03:13:10;12.60;66.50
820;DHT22;392;48.838;2.322;2023-05-02T03:18:59;12.60;66.40
820;DHT22;392;48.838;2.322;2023-05-02T03:21:28;12.60;65.80
820;DHT22;392;48.838;2.322;2023-05-02T03:24:01;12.60;65.50
820;DHT22;392;48.838;2.322;2023-05-02T03:26:29;12.50;65.80
820;DHT22;392;48.838;2.322;2023-05-02T03:28:57;12.50;66.00
820;DHT22;392;48.838;2.322;2023-05-02T03:31:30;12.50;66.10
820;DHT22;392;48.838;2.322;2023-05-02T03:33:58;12.40;66.50
820;DHT22;392;48.838;2.322;2023-05-02T03:36:26;12.40;66.80
820;DHT22;392;48.838;2.322;2023-05-02T03:38:54;12.40;67.00
820;DHT22;392;48.838;2.322;2023-05-02T03:41:23;12.40;67.10
820;DHT22;392;48.838;2.322;2023-05-02T03:43:57;12.40;67.30
820;DHT22;392;48.838;2.322;2023-05-02T03:46:26;12.40;67.40
820;DHT22;392;48.838;2.322;2023-05-02T03:48:56;12.40;67.60
820;DHT22;392;48.838;2.322;2023-05-02T03:51:24;12.40;67.90
820;DHT22;392;48.838;2.322;2023-05-02T03:53:54;12.40;68.20
820;DHT22;392;48.838;2.322;2023-05-02T03:56:24;12.40;68.30
820;DHT22;392;48.838;2.322;2023-05-02T03:59:03;12.40;69.10
820;DHT22;392;48.838;2.322;2023-05-02T04:01:30;12.40;68.60
820;DHT22;392;48.838;2.322;2023-05-02T04:03:59;12.40;68.50
820;DHT22;392;48.838;2.322;2023-05-02T04:06:30;12.40;68.20
820;DHT22;392;48.838;2.322;2023-05-02T04:09:02;12.40;68.00
820;DHT22;392;48.838;2.322;2023-05-02T04:11:38;12.40;68.20
820;DHT22;392;48.838;2.322;2023-05-02T04:14:07;12.40;68.30
820;DHT22;392;48.838;2.322;2023-05-02T04:16:34;12.30;68.40
820;DHT22;392;48.838;2.322;2023-05-02T04:19:02;12.30;68.60
820;DHT22;392;48.838;2.322;2023-05-02T04:21:29;12.30;68.80
820;DHT22;392;48.838;2.322;2023-05-02T04:23:57;12.30;68.50
820;DHT22;392;48.838;2.322;2023-05-02T04:26:25;12.30;68.20
820;DHT22;392;48.838;2.322;2023-05-02T04:29:00;12.20;68.20
820;DHT22;392;48.838;2.322;2023-05-02T04:31:27;12.20;68.50
820;DHT22;392;48.838;2.322;2023-05-02T04:33:55;12.20;69.10
820;DHT22;392;48.838;2.322;2023-05-02T04:36:25;12.10;69.40
820;DHT22;392;48.838;2.322;2023-05-02T04:38:54;12.10;70.10
820;DHT22;392;48.838;2.322;2023-05-02T04:41:21;12.10;70.10
820;DHT22;392;48.838;2.322;2023-05-02T04:43:55;12.10;70.30
820;DHT22;392;48.838;2.322;2023-05-02T04:46:25;12.10;70.20
820;DHT22;392;48.838;2.322;2023-05-02T04:48:52;12.10;70.40
820;DHT22;392;48.838;2.322;2023-05-02T04:51:19;12.10;70.70
820;DHT22;392;48.838;2.322;2023-05-02T04:53:50;12.10;71.50
820;DHT22;392;48.838;2.322;2023-05-02T04:56:18;12.20;71.60
820;DHT22;392;48.838;2.322;2023-05-02T04:58:47;12.20;71.90
820;DHT22;392;48.838;2.322;2023-05-02T05:01:25;12.30;71.80
820;DHT22;392;48.838;2.322;2023-05-02T05:03:54;12.40;71.30
820;DHT22;392;48.838;2.322;2023-05-02T05:06:22;12.40;70.90
820;DHT22;392;48.838;2.322;2023-05-02T05:08:51;12.50;69.80
820;DHT22;392;48.838;2.322;2023-05-02T05:11:18;12.60;69.40
820;DHT22;392;48.838;2.322;2023-05-02T05:13:46;12.70;68.90
820;DHT22;392;48.838;2.322;2023-05-02T05:16:14;12.90;68.10
820;DHT22;392;48.838;2.322;2023-05-02T05:18:43;13.00;67.20
820;DHT22;392;48.838;2.322;2023-05-02T05:21:13;13.10;65.10
820;DHT22;392;48.838;2.322;2023-05-02T05:23:40;13.20;63.90
820;DHT22;392;48.838;2.322;2023-05-02T05:26:14;13.30;61.40
820;DHT22;392;48.838;2.322;2023-05-02T05:28:45;13.40;61.20
820;DHT22;392;48.838;2.322;2023-05-02T05:31:13;13.40;60.40
820;DHT22;392;48.838;2.322;2023-05-02T05:33:44;13.50;59.30
820;DHT22;392;48.838;2.322;2023-05-02T05:36:13;13.50;58.30
820;DHT22;392;48.838;2.322;2023-05-02T05:38:40;13.50;57.10
820;DHT22;392;48.838;2.322;2023-05-02T05:41:09;13.50;57.10
820;DHT22;392;48.838;2.322;2023-05-02T05:43:40;13.40;57.30
820;DHT22;392;48.838;2.322;2023-05-02T05:46:08;13.40;58.10
820;DHT22;392;48.838;2.322;2023-05-02T05:48:37;13.40;57.70
820;DHT22;392;48.838;2.322;2023-05-02T05:51:06;13.40;57.40
820;DHT22;392;48.838;2.322;2023-05-02T05:53:33;13.40;57.60
820;DHT22;392;48.838;2.322;2023-05-02T05:56:09;13.30;57.40
820;DHT22;392;48.838;2.322;2023-05-02T05:58:39;13.30;58.00
820;DHT22;392;48.838;2.322;2023-05-02T06:01:09;13.20;58.60
820;DHT22;392;48.838;2.322;2023-05-02T06:03:37;13.20;59.10
820;DHT22;392;48.838;2.322;2023-05-02T06:06:06;13.20;59.30
820;DHT22;392;48.838;2.322;2023-05-02T06:08:33;13.20;59.70
820;DHT22;392;48.838;2.322;2023-05-02T06:11:01;13.20;60.00
820;DHT22;392;48.838;2.322;2023-05-02T06:13:28;13.30;60.20
820;DHT22;392;48.838;2.322;2023-05-02T06:15:59;13.40;60.80
820;DHT22;392;48.838;2.322;2023-05-02T06:18:27;13.60;61.70
820;DHT22;392;48.838;2.322;2023-05-02T06:20:54;14.00;60.10
820;DHT22;392;48.838;2.322;2023-05-02T06:23:23;14.40;56.70
820;DHT22;392;48.838;2.322;2023-05-02T06:25:53;14.90;54.00
820;DHT22;392;48.838;2.322;2023-05-02T06:28:20;15.40;48.90
820;DHT22;392;48.838;2.322;2023-05-02T06:30:56;15.80;45.50
820;DHT22;392;48.838;2.322;2023-05-02T06:33:24;16.20;42.70
820;DHT22;392;48.838;2.322;2023-05-02T06:35:51;16.50;39.90
820;DHT22;392;48.838;2.322;2023-05-02T06:38:18;16.70;38.20
820;DHT22;392;48.838;2.322;2023-05-02T06:40:47;16.90;37.20
820;DHT22;392;48.838;2.322;2023-05-02T06:43:15;17.20;36.40
820;DHT22;392;48.838;2.322;2023-05-02T06:45:43;17.30;35.20
820;DHT22;392;48.838;2.322;2023-05-02T06:48:10;17.60;34.70
820;DHT22;392;48.838;2.322;2023-05-02T06:50:38;17.80;32.80
820;DHT22;392;48.838;2.322;2023-05-02T06:53:05;18.00;32.00
820;DHT22;392;48.838;2.322;2023-05-02T06:55:32;18.10;31.40
820;DHT22;392;48.838;2.322;2023-05-02T06:58:01;18.30;31.30
820;DHT22;392;48.838;2.322;2023-05-02T07:00:29;18.30;30.70
820;DHT22;392;48.838;2.322;2023-05-02T07:02:56;18.50;30.00
820;DHT22;392;48.838;2.322;2023-05-02T07:05:23;18.70;28.80
820;DHT22;392;48.838;2.322;2023-05-02T07:07:51;19.10;27.60
820;DHT22;392;48.838;2.322;2023-05-02T07:10:18;19.10;27.60
820;DHT22;392;48.838;2.322;2023-05-02T07:12:45;19.10;27.60
820;DHT22;392;48.838;2.322;2023-05-02T07:15:14;19.40;26.90
820;DHT22;392;48.838;2.322;2023-05-02T07:17:42;19.60;26.40
820;DHT22;392;48.838;2.322;2023-05-02T07:20:12;19.90;25.60
820;DHT22;392;48.838;2.322;2023-05-02T07:22:40;20.10;25.10
820;DHT22;392;48.838;2.322;2023-05-02T07:25:08;20.30;24.80
820;DHT22;392;48.838;2.322;2023-05-02T07:27:35;20.60;24.00
820;DHT22;392;48.838;2.322;2023-05-02T07:30:04;20.80;23.40
820;DHT22;392;48.838;2.322;2023-05-02T07:32:33;21.00;23.20
820;DHT22;392;48.838;2.322;2023-05-02T07:35:00;21.30;22.90
820;DHT22;392;48.838;2.322;2023-05-02T07:37:31;21.70;21.80
820;DHT22;392;48.838;2.322;2023-05-02T07:39:59;22.00;20.90
820;DHT22;392;48.838;2.322;2023-05-02T07:42:28;22.00;20.70
820;DHT22;392;48.838;2.322;2023-05-02T07:44:55;22.10;20.60
820;DHT22;392;48.838;2.322;2023-05-02T07:47:24;22.20;20.30
820;DHT22;392;48.838;2.322;2023-05-02T07:49:53;22.50;19.90
820;DHT22;392;48.838;2.322;2023-05-02T07:52:21;22.60;19.80
820;DHT22;392;48.838;2.322;2023-05-02T07:54:48;22.80;19.30
820;DHT22;392;48.838;2.322;2023-05-02T07:57:16;23.00;18.80
820;DHT22;392;48.838;2.322;2023-05-02T07:59:43;23.10;18.00
820;DHT22;392;48.838;2.322;2023-05-02T08:02:11;23.00;17.80
820;DHT22;392;48.838;2.322;2023-05-02T08:04:38;22.80;19.20
820;DHT22;392;48.838;2.322;2023-05-02T08:07:07;22.90;18.00
820;DHT22;392;48.838;2.322;2023-05-02T08:09:35;23.10;17.80
820;DHT22;392;48.838;2.322;2023-05-02T08:12:02;23.40;17.40
820;DHT22;392;48.838;2.322;2023-05-02T08:14:30;23.70;16.80
820;DHT22;392;48.838;2.322;2023-05-02T08:16:57;23.80;16.70
820;DHT22;392;48.838;2.322;2023-05-02T08:19:25;24.20;16.20
820;DHT22;392;48.838;2.322;2023-05-02T08:21:53;24.50;15.20
820;DHT22;392;48.838;2.322;2023-05-02T08:24:22;24.80;14.70
820;DHT22;392;48.838;2.322;2023-05-02T08:26:50;24.90;14.80
820;DHT22;392;48.838;2.322;2023-05-02T08:29:17;25.20;13.90
820;DHT22;392;48.838;2.322;2023-05-02T08:31:45;25.30;13.80
820;DHT22;392;48.838;2.322;2023-05-02T08:34:12;25.40;13.60
820;DHT22;392;48.838;2.322;2023-05-02T08:36:39;25.40;13.50
820;DHT22;392;48.838;2.322;2023-05-02T08:39:07;25.50;13.10
820;DHT22;392;48.838;2.322;2023-05-02T08:41:36;25.60;13.00
820;DHT22;392;48.838;2.322;2023-05-02T08:44:05;25.60;13.00
820;DHT22;392;48.838;2.322;2023-05-02T08:46:35;26.00;12.40
820;DHT22;392;48.838;2.322;2023-05-02T08:49:02;26.20;11.80
820;DHT22;392;48.838;2.322;2023-05-02T08:51:32;26.50;11.60
820;DHT22;392;48.838;2.322;2023-05-02T08:54:01;26.70;10.90
820;DHT22;392;48.838;2.322;2023-05-02T08:56:28;27.00;10.60
820;DHT22;392;48.838;2.322;2023-05-02T08:58:57;27.20;10.00
820;DHT22;392;48.838;2.322;2023-05-02T09:01:29;27.00;10.20
820;DHT22;392;48.838;2.322;2023-05-02T09:03:56;27.20;10.00
820;DHT22;392;48.838;2.322;2023-05-02T09:06:25;27.30;9.60
820;DHT22;392;48.838;2.322;2023-05-02T09:08:54;27.30;9.60
820;DHT22;392;48.838;2.322;2023-05-02T09:11:21;27.40;9.50
820;DHT22;392;48.838;2.322;2023-05-02T09:13:51;27.40;9.50
820;DHT22;392;48.838;2.322;2023-05-02T09:16:20;27.70;9.20
820;DHT22;392;48.838;2.322;2023-05-02T09:18:51;28.10;8.50
820;DHT22;392;48.838;2.322;2023-05-02T09:21:21;28.10;8.70
820;DHT22;392;48.838;2.322;2023-05-02T09:23:52;28.20;8.50
820;DHT22;392;48.838;2.322;2023-05-02T09:26:21;28.40;8.30
820;DHT22;392;48.838;2.322;2023-05-02T09:28:50;28.60;7.80
820;DHT22;392;48.838;2.322;2023-05-02T09:31:22;28.60;7.80
820;DHT22;392;48.838;2.322;2023-05-02T09:33:51;28.40;8.00
820;DHT22;392;48.838;2.322;2023-05-02T09:36:20;28.40;8.20
820;DHT22;392;48.838;2.322;2023-05-02T09:38:48;28.40;8.30
820;DHT22;392;48.838;2.322;2023-05-02T09:41:16;28.30;8.10
820;DHT22;392;48.838;2.322;2023-05-02T09:43:54;27.90;8.90
820;DHT22;392;48.838;2.322;2023-05-02T09:46:23;27.90;8.80
820;DHT22;392;48.838;2.322;2023-05-02T09:48:52;28.00;8.70
820;DHT22;392;48.838;2.322;2023-05-02T09:51:21;27.90;8.90
820;DHT22;392;48.838;2.322;2023-05-02T09:53:49;28.00;8.90
820;DHT22;392;48.838;2.322;2023-05-02T09:56:17;28.40;8.00
820;DHT22;392;48.838;2.322;2023-05-02T09:58:45;28.60;7.80
820;DHT22;392;48.838;2.322;2023-05-02T10:01:14;28.30;8.00
820;DHT22;392;48.838;2.322;2023-05-02T10:03:46;28.20;8.00
820;DHT22;392;48.838;2.322;2023-05-02T10:06:14;28.50;8.00
820;DHT22;392;48.838;2.322;2023-05-02T10:08:42;28.70;7.50
820;DHT22;392;48.838;2.322;2023-05-02T10:11:11;28.50;7.60
820;DHT22;392;48.838;2.322;2023-05-02T10:13:40;28.80;7.10
820;DHT22;392;48.838;2.322;2023-05-02T10:16:11;28.90;7.00
820;DHT22;392;48.838;2.322;2023-05-02T10:18:44;29.00;6.40
820;DHT22;392;48.838;2.322;2023-05-02T10:21:16;29.20;6.30
820;DHT22;392;48.838;2.322;2023-05-02T10:23:50;29.40;5.90
820;DHT22;392;48.838;2.322;2023-05-02T10:26:18;29.80;5.70
820;DHT22;392;48.838;2.322;2023-05-02T10:28:46;30.10;4.80
820;DHT22;392;48.838;2.322;2023-05-02T10:31:14;30.10;4.90
820;DHT22;392;48.838;2.322;2023-05-02T10:33:45;30.20;4.80
820;DHT22;392;48.838;2.322;2023-05-02T10:36:13;30.10;4.90
820;DHT22;392;48.838;2.322;2023-05-02T10:38:41;29.80;5.10
820;DHT22;392;48.838;2.322;2023-05-02T10:41:12;29.50;5.80
820;DHT22;392;48.838;2.322;2023-05-02T10:43:45;29.70;6.00
820;DHT22;392;48.838;2.322;2023-05-02T10:46:29;30.00;5.00
820;DHT22;392;48.838;2.322;2023-05-02T10:49:03;30.40;4.50
820;DHT22;392;48.838;2.322;2023-05-02T10:51:32;30.70;4.40
820;DHT22;392;48.838;2.322;2023-05-02T10:54:20;30.90;4.10
820;DHT22;392;48.838;2.322;2023-05-02T10:57:05;31.10;3.90
820;DHT22;392;48.838;2.322;2023-05-02T10:59:35;30.80;4.20
820;DHT22;392;48.838;2.322;2023-05-02T11:02:03;30.50;4.30
820;DHT22;392;48.838;2.322;2023-05-02T11:05:01;30.20;4.10
820;DHT22;392;48.838;2.322;2023-05-02T11:07:33;29.10;5.70
820;DHT22;392;48.838;2.322;2023-05-02T11:10:25;28.70;6.50
820;DHT22;392;48.838;2.322;2023-05-02T11:12:54;28.80;6.30
820;DHT22;392;48.838;2.322;2023-05-02T11:15:53;29.00;6.20
820;DHT22;392;48.838;2.322;2023-05-02T11:18:21;28.80;6.20
820;DHT22;392;48.838;2.322;2023-05-02T11:20:50;28.30;7.00
820;DHT22;392;48.838;2.322;2023-05-02T11:23:22;28.30;7.00
820;DHT22;392;48.838;2.322;2023-05-02T11:25:53;28.60;6.70
820;DHT22;392;48.838;2.322;2023-05-02T11:28:41;28.60;6.60
820;DHT22;392;48.838;2.322;2023-05-02T11:34:41;29.00;6.10
820;DHT22;392;48.838;2.322;2023-05-02T11:37:14;29.30;5.80
820;DHT22;392;48.838;2.322;2023-05-02T11:39:41;29.70;5.10
820;DHT22;392;48.838;2.322;2023-05-02T11:42:10;29.60;5.10
820;DHT22;392;48.838;2.322;2023-05-02T11:44:57;28.80;6.10
820;DHT22;392;48.838;2.322;2023-05-02T11:47:26;28.00;7.20
820;DHT22;392;48.838;2.322;2023-05-02T11:49:54;27.80;7.40
820;DHT22;392;48.838;2.322;2023-05-02T11:52:23;27.50;8.00
820;DHT22;392;48.838;2.322;2023-05-02T11:54:53;27.60;7.80
820;DHT22;392;48.838;2.322;2023-05-02T11:57:21;28.00;7.30
820;DHT22;392;48.838;2.322;2023-05-02T11:59:50;28.10;7.00
820;DHT22;392;48.838;2.322;2023-05-02T12:02:17;28.10;6.70
820;DHT22;392;48.838;2.322;2023-05-02T12:04:45;27.70;7.40
820;DHT22;392;48.838;2.322;2023-05-02T12:07:13;27.40;7.60
820;DHT22;392;48.838;2.322;2023-05-02T12:09:53;27.40;8.30
820;DHT22;392;48.838;2.322;2023-05-02T12:12:20;27.30;7.70
820;DHT22;392;48.838;2.322;2023-05-02T12:14:48;27.70;8.10
820;DHT22;392;48.838;2.322;2023-05-02T12:17:15;28.10;7.00
820;DHT22;392;48.838;2.322;2023-05-02T12:19:43;28.20;6.60
820;DHT22;392;48.838;2.322;2023-05-02T12:22:10;28.50;6.70
820;DHT22;392;48.838;2.322;2023-05-02T12:24:39;28.40;6.40
820;DHT22;392;48.838;2.322;2023-05-02T12:27:11;27.50;7.40
820;DHT22;392;48.838;2.322;2023-05-02T12:29:39;26.80;8.60
820;DHT22;392;48.838;2.322;2023-05-02T12:32:07;26.40;9.10
820;DHT22;392;48.838;2.322;2023-05-02T12:34:35;25.80;10.20
820;DHT22;392;48.838;2.322;2023-05-02T12:37:04;25.20;10.90
820;DHT22;392;48.838;2.322;2023-05-02T12:39:35;25.30;10.60
820;DHT22;392;48.838;2.322;2023-05-02T12:42:12;25.20;10.80
820;DHT22;392;48.838;2.322;2023-05-02T12:44:42;25.10;11.10
820;DHT22;392;48.838;2.322;2023-05-02T12:47:12;24.80;11.70
820;DHT22;392;48.838;2.322;2023-05-02T12:49:50;24.80;11.50
820;DHT22;392;48.838;2.322;2023-05-02T12:52:19;25.20;10.90
820;DHT22;392;48.838;2.322;2023-05-02T12:54:47;25.70;10.40
820;DHT22;392;48.838;2.322;2023-05-02T12:57:23;26.00;9.60
820;DHT22;392;48.838;2.322;2023-05-02T12:59:51;26.30;9.20
820;DHT22;392;48.838;2.322;2023-05-02T13:02:20;26.50;9.10
820;DHT22;392;48.838;2.322;2023-05-02T13:04:47;26.30;8.90
820;DHT22;392;48.838;2.322;2023-05-02T13:07:15;25.50;9.80
820;DHT22;392;48.838;2.322;2023-05-02T13:09:42;25.00;10.40
820;DHT22;392;48.838;2.322;2023-05-02T13:12:09;24.90;11.30
820;DHT22;392;48.838;2.322;2023-05-02T13:14:38;24.50;11.80
820;DHT22;392;48.838;2.322;2023-05-02T13:17:06;24.10;12.30
820;DHT22;392;48.838;2.322;2023-05-02T13:19:34;23.70;13.10
820;DHT22;392;48.838;2.322;2023-05-02T13:22:01;23.30;13.60
820;DHT22;392;48.838;2.322;2023-05-02T13:24:28;23.10;13.60
820;DHT22;392;48.838;2.322;2023-05-02T13:26:55;23.10;13.50
820;DHT22;392;48.838;2.322;2023-05-02T13:29:23;23.30;13.10
820;DHT22;392;48.838;2.322;2023-05-02T13:31:51;23.50;12.90
820;DHT22;392;48.838;2.322;2023-05-02T13:34:19;23.70;12.80
820;DHT22;392;48.838;2.322;2023-05-02T13:36:46;23.60;12.60
820;DHT22;392;48.838;2.322;2023-05-02T13:39:13;23.60;12.80
820;DHT22;392;48.838;2.322;2023-05-02T13:41:41;23.40;13.00
820;DHT22;392;48.838;2.322;2023-05-02T13:44:08;22.90;13.70
820;DHT22;392;48.838;2.322;2023-05-02T13:46:35;22.70;14.20
820;DHT22;392;48.838;2.322;2023-05-02T13:49:07;22.60;13.90
820;DHT22;392;48.838;2.322;2023-05-02T13:51:34;22.40;14.00
820;DHT22;392;48.838;2.322;2023-05-02T13:54:02;22.20;14.20
820;DHT22;392;48.838;2.322;2023-05-02T13:56:29;22.00;14.30
820;DHT22;392;48.838;2.322;2023-05-02T13:58:57;21.90;15.10
820;DHT22;392;48.838;2.322;2023-05-02T14:01:24;21.70;15.60
820;DHT22;392;48.838;2.322;2023-05-02T14:03:52;21.60;15.70
820;DHT22;392;48.838;2.322;2023-05-02T14:06:21;21.50;15.70
820;DHT22;392;48.838;2.322;2023-05-02T14:08:49;21.20;16.30
820;DHT22;392;48.838;2.322;2023-05-02T14:11:17;21.00;16.60
820;DHT22;392;48.838;2.322;2023-05-02T14:13:44;20.80;16.70
820;DHT22;392;48.838;2.322;2023-05-02T14:16:12;20.50;17.00
820;DHT22;392;48.838;2.322;2023-05-02T14:18:39;20.30;17.30
820;DHT22;392;48.838;2.322;2023-05-02T14:21:07;20.30;17.40
820;DHT22;392;48.838;2.322;2023-05-02T14:23:35;20.20;17.20
820;DHT22;392;48.838;2.322;2023-05-02T14:26:03;20.10;17.40
820;DHT22;392;48.838;2.322;2023-05-02T14:28:30;20.00;17.90
820;DHT22;392;48.838;2.322;2023-05-02T14:30:58;20.00;17.60
820;DHT22;392;48.838;2.322;2023-05-02T14:33:25;20.00;17.80
820;DHT22;392;48.838;2.322;2023-05-02T14:35:52;19.90;18.10
820;DHT22;392;48.838;2.322;2023-05-02T14:38:20;20.10;18.20
820;DHT22;392;48.838;2.322;2023-05-02T14:40:48;20.10;17.70
820;DHT22;392;48.838;2.322;2023-05-02T14:43:16;20.10;17.30
820;DHT22;392;48.838;2.322;2023-05-02T14:45:43;20.10;17.50
820;DHT22;392;48.838;2.322;2023-05-02T14:48:10;19.90;17.70
820;DHT22;392;48.838;2.322;2023-05-02T14:50:38;19.80;18.00
820;DHT22;392;48.838;2.322;2023-05-02T14:53:06;19.70;18.20
820;DHT22;392;48.838;2.322;2023-05-02T14:55:35;19.60;18.30
820;DHT22;392;48.838;2.322;2023-05-02T14:58:05;19.60;18.40
820;DHT22;392;48.838;2.322;2023-05-02T15:00:33;19.60;17.90
820;DHT22;392;48.838;2.322;2023-05-02T15:03:03;19.70;16.80
820;DHT22;392;48.838;2.322;2023-05-02T15:05:30;19.70;17.30
820;DHT22;392;48.838;2.322;2023-05-02T15:07:58;19.70;17.70
820;DHT22;392;48.838;2.322;2023-05-02T15:10:26;19.70;17.90
820;DHT22;392;48.838;2.322;2023-05-02T15:12:53;19.80;17.40
820;DHT22;392;48.838;2.322;2023-05-02T15:15:22;19.80;17.60
820;DHT22;392;48.838;2.322;2023-05-02T15:17:50;19.90;17.60
820;DHT22;392;48.838;2.322;2023-05-02T15:20:17;19.90;17.60
820;DHT22;392;48.838;2.322;2023-05-02T15:22:45;19.90;17.40
820;DHT22;392;48.838;2.322;2023-05-02T15:25:13;19.80;17.70
820;DHT22;392;48.838;2.322;2023-05-02T15:27:40;19.80;17.60
820;DHT22;392;48.838;2.322;2023-05-02T15:30:09;19.80;17.40
820;DHT22;392;48.838;2.322;2023-05-02T15:32:38;19.90;17.40
820;DHT22;392;48.838;2.322;2023-05-02T15:35:06;20.00;16.20
820;DHT22;392;48.838;2.322;2023-05-02T15:37:34;20.00;15.70
820;DHT22;392;48.838;2.322;2023-05-02T15:40:02;19.90;16.40
820;DHT22;392;48.838;2.322;2023-05-02T15:42:29;19.90;16.10
820;DHT22;392;48.838;2.322;2023-05-02T15:44:56;19.90;16.00
820;DHT22;392;48.838;2.322;2023-05-02T15:47:24;19.90;15.70
820;DHT22;392;48.838;2.322;2023-05-02T15:49:52;19.90;16.10
820;DHT22;392;48.838;2.322;2023-05-02T15:52:20;20.00;16.10
820;DHT22;392;48.838;2.322;2023-05-02T15:54:48;20.10;15.70
820;DHT22;392;48.838;2.322;2023-05-02T15:57:16;20.20;15.80
820;DHT22;392;48.838;2.322;2023-05-02T15:59:44;20.30;16.10
820;DHT22;392;48.838;2.322;2023-05-02T16:02:11;20.30;15.80
820;DHT22;392;48.838;2.322;2023-05-02T16:04:38;20.30;15.90
820;DHT22;392;48.838;2.322;2023-05-02T16:07:11;20.20;15.80
820;DHT22;392;48.838;2.322;2023-05-02T16:09:39;20.20;15.40
820;DHT22;392;48.838;2.322;2023-05-02T16:12:07;20.10;15.50
820;DHT22;392;48.838;2.322;2023-05-02T16:14:34;20.10;15.70
820;DHT22;392;48.838;2.322;2023-05-02T16:17:01;20.00;15.60
820;DHT22;392;48.838;2.322;2023-05-02T16:19:29;20.10;15.70
820;DHT22;392;48.838;2.322;2023-05-02T16:21:56;20.10;15.70
820;DHT22;392;48.838;2.322;2023-05-02T16:24:25;20.00;15.80
820;DHT22;392;48.838;2.322;2023-05-02T16:26:52;20.10;15.90
820;DHT22;392;48.838;2.322;2023-05-02T16:29:20;20.20;16.00
820;DHT22;392;48.838;2.322;2023-05-02T16:31:47;20.30;16.00
820;DHT22;392;48.838;2.322;2023-05-02T16:34:14;20.50;15.00
820;DHT22;392;48.838;2.322;2023-05-02T16:36:41;20.60;15.10
820;DHT22;392;48.838;2.322;2023-05-02T16:39:09;20.50;15.50
820;DHT22;392;48.838;2.322;2023-05-02T16:41:38;20.40;15.70
820;DHT22;392;48.838;2.322;2023-05-02T16:44:05;20.40;15.40
820;DHT22;392;48.838;2.322;2023-05-02T16:46:32;20.30;15.30
820;DHT22;392;48.838;2.322;2023-05-02T16:49:00;20.20;15.50
820;DHT22;392;48.838;2.322;2023-05-02T16:51:27;20.20;15.80
820;DHT22;392;48.838;2.322;2023-05-02T16:53:56;20.20;15.50
820;DHT22;392;48.838;2.322;2023-05-02T16:56:23;20.10;15.70
820;DHT22;392;48.838;2.322;2023-05-02T16:58:52;20.10;15.70
820;DHT22;392;48.838;2.322;2023-05-02T17:01:21;20.10;16.00
820;DHT22;392;48.838;2.322;2023-05-02T17:03:49;20.10;16.00